Time;durP1;ratioP1;P1;durP2;ratioP2;P2;SDS_P1;SDS_P2;PMS_P1;PMS_P2;Temp;Humidity;BMP_temperature;BMP_pressure;BME280_temperature;BME280_humidity;BME280_pressure;Samples;Min_cycle;Max_cycle;Signal;HPM_P1;HPM_P2
2022/05/04 00:00:10;;;;;;;;;;;19.90;99.90;;;;;;5114591;28;19907;-37
2022/05/04 00:02:36;;;;;;;;;;;19.90;99.90;;;;;;5114851;28;19907;-37
2022/05/04 00:05:02;;;;;;;;;;;19.90;99.90;;;;;;5114906;28;19985;-37
2022/05/04 00:07:27;;;;;;;;;;;19.90;99.90;;;;;;5114815;28;19959;-37
2022/05/04 00:09:53;;;;;;;;;;;19.90;99.90;;;;;;5114823;28;19912;-37
2022/05/04 00:12:18;;;;;;;;;;;19.90;99.90;;;;;;5114919;28;19908;-37
2022/05/04 00:14:44;;;;;;;;;;;19.80;99.90;;;;;;5114684;28;19911;-37
2022/05/04 00:17:09;;;;;;;;;;;19.80;99.90;;;;;;5114360;28;19958;-37
2022/05/04 00:19:35;;;;;;;;;;;19.80;99.90;;;;;;5114698;28;19950;-37
2022/05/04 00:22:00;;;;;;;;;;;19.90;99.90;;;;;;5114642;28;19994;-37
2022/05/04 00:24:26;;;;;;;;;;;19.80;99.90;;;;;;5114593;28;19908;-37
2022/05/04 00:26:51;;;;;;;;;;;19.80;99.90;;;;;;5114192;28;19911;-37
2022/05/04 00:29:17;;;;;;;;;;;19.80;99.90;;;;;;5114167;28;19922;-37
2022/05/04 00:31:42;;;;;;;;;;;19.80;99.90;;;;;;5114415;28;19915;-37
2022/05/04 00:34:08;;;;;;;;;;;19.80;99.90;;;;;;5114491;28;19912;-37
2022/05/04 00:36:33;;;;;;;;;;;19.80;99.90;;;;;;5114388;28;19915;-37
2022/05/04 00:38:59;;;;;;;;;;;19.80;99.90;;;;;;5114073;28;19915;-37
2022/05/04 00:41:25;;;;;;;;;;;19.80;99.90;;;;;;5114766;28;20022;-37
2022/05/04 00:43:51;;;;;;;;;;;19.80;99.90;;;;;;5114105;28;19908;-37
2022/05/04 00:46:17;;;;;;;;;;;19.80;99.90;;;;;;5116317;28;20384;-37
2022/05/04 00:48:43;;;;;;;;;;;19.80;99.90;;;;;;5118629;28;20014;-37
2022/05/04 00:51:08;;;;;;;;;;;19.70;99.90;;;;;;5118515;28;19929;-37
2022/05/04 00:53:34;;;;;;;;;;;19.80;99.90;;;;;;5118225;28;19908;-37
2022/05/04 00:56:00;;;;;;;;;;;19.70;99.90;;;;;;5118134;28;19908;-37
2022/05/04 01:01:10;;;;;;;;;;;19.80;99.90;;;;;;5118584;28;19915;-36
2022/05/04 01:03:37;;;;;;;;;;;19.70;99.90;;;;;;5118369;28;19908;-36
2022/05/04 01:06:03;;;;;;;;;;;19.80;99.90;;;;;;5118178;28;19911;-36
2022/05/04 01:08:28;;;;;;;;;;;19.70;99.90;;;;;;5118232;28;19969;-36
2022/05/04 01:10:54;;;;;;;;;;;19.70;99.90;;;;;;5118193;28;19908;-36
2022/05/04 01:13:20;;;;;;;;;;;19.70;99.90;;;;;;5117920;28;19972;-36
2022/05/04 01:15:47;;;;;;;;;;;19.70;99.90;;;;;;5117929;28;19908;-35
2022/05/04 01:18:12;;;;;;;;;;;19.60;99.90;;;;;;5118014;28;19915;-36
2022/05/04 01:20:38;;;;;;;;;;;19.50;99.90;;;;;;5117768;28;19912;-36
2022/05/04 01:23:03;;;;;;;;;;;19.60;99.90;;;;;;5117701;28;20271;-36
2022/05/04 01:25:29;;;;;;;;;;;19.60;99.90;;;;;;5117915;28;20423;-36
2022/05/04 01:27:55;;;;;;;;;;;19.60;99.90;;;;;;5117493;28;20297;-36
2022/05/04 01:30:21;;;;;;;;;;;19.60;99.90;;;;;;5118331;28;19915;-36
2022/05/04 01:32:47;;;;;;;;;;;19.60;99.90;;;;;;5117428;28;20445;-36
2022/05/04 01:35:13;;;;;;;;;;;19.60;99.90;;;;;;5117692;28;19908;-36
2022/05/04 01:37:39;;;;;;;;;;;19.60;99.90;;;;;;5117708;28;19915;-36
2022/05/04 01:40:05;;;;;;;;;;;19.60;99.90;;;;;;5117318;28;19915;-36
2022/05/04 01:42:30;;;;;;;;;;;19.60;99.90;;;;;;5117584;28;19951;-36
2022/05/04 01:44:56;;;;;;;;;;;19.60;99.90;;;;;;5117564;28;19922;-36
2022/05/04 01:47:22;;;;;;;;;;;19.70;99.90;;;;;;5117128;28;19918;-36
2022/05/04 01:49:47;;;;;;;;;;;19.60;99.90;;;;;;5117454;28;19918;-36
2022/05/04 01:52:13;;;;;;;;;;;19.60;99.90;;;;;;5117066;28;19908;-36
2022/05/04 01:54:38;;;;;;;;;;;19.60;99.90;;;;;;5117086;28;19912;-36
2022/05/04 01:57:04;;;;;;;;;;;19.50;99.90;;;;;;5116691;28;19908;-36
2022/05/04 01:59:29;;;;;;;;;;;19.60;99.90;;;;;;5117207;28;19999;-36
2022/05/04 02:01:55;;;;;;;;;;;19.60;99.90;;;;;;5117184;28;19908;-36
2022/05/04 02:04:21;;;;;;;;;;;19.60;99.90;;;;;;5116905;28;19961;-36
2022/05/04 02:06:47;;;;;;;;;;;19.60;99.90;;;;;;5117034;28;19916;-36
2022/05/04 02:09:13;;;;;;;;;;;19.60;99.90;;;;;;5116830;28;19957;-37
2022/05/04 02:11:38;;;;;;;;;;;19.60;99.90;;;;;;5116731;28;19907;-36
2022/05/04 02:14:04;;;;;;;;;;;19.60;99.90;;;;;;5116950;28;19914;-36
2022/05/04 02:16:30;;;;;;;;;;;19.70;99.90;;;;;;5116696;28;19961;-36
2022/05/04 02:18:56;;;;;;;;;;;19.70;99.90;;;;;;5116876;28;19908;-36
2022/05/04 02:21:22;;;;;;;;;;;19.70;99.90;;;;;;5116799;28;19907;-36
2022/05/04 02:23:47;;;;;;;;;;;19.70;99.90;;;;;;5116776;28;19912;-36
2022/05/04 02:26:13;;;;;;;;;;;19.70;99.90;;;;;;5116641;28;19911;-36
2022/05/04 02:28:38;;;;;;;;;;;19.60;99.90;;;;;;5116813;28;20347;-36
2022/05/04 02:31:04;;;;;;;;;;;19.70;99.90;;;;;;5116581;28;19915;-36
2022/05/04 02:33:30;;;;;;;;;;;19.60;99.90;;;;;;5116113;28;20029;-36
2022/05/04 02:38:39;;;;;;;;;;;19.70;99.90;;;;;;5116313;28;20381;-36
2022/05/04 02:41:05;;;;;;;;;;;19.70;99.90;;;;;;5116409;28;19908;-36
2022/05/04 02:43:31;;;;;;;;;;;19.60;99.90;;;;;;5116336;28;19908;-36
2022/05/04 02:45:57;;;;;;;;;;;19.60;99.90;;;;;;5115917;28;20281;-36
2022/05/04 02:48:23;;;;;;;;;;;19.60;99.90;;;;;;5116067;28;19951;-36
2022/05/04 02:50:48;;;;;;;;;;;19.70;99.90;;;;;;5116252;28;20008;-37
2022/05/04 02:53:14;;;;;;;;;;;19.70;99.90;;;;;;5116100;28;19908;-36
2022/05/04 02:55:40;;;;;;;;;;;19.70;99.90;;;;;;5116184;28;19907;-36
2022/05/04 02:58:05;;;;;;;;;;;19.60;99.90;;;;;;5116155;28;19907;-36
2022/05/04 03:00:31;;;;;;;;;;;19.70;99.90;;;;;;5116038;28;20247;-36
2022/05/04 03:02:56;;;;;;;;;;;19.70;99.90;;;;;;5115778;28;20040;-36
2022/05/04 03:05:22;;;;;;;;;;;19.60;99.90;;;;;;5115627;28;19908;-36
2022/05/04 03:07:48;;;;;;;;;;;19.70;99.90;;;;;;5115561;28;19916;-36
2022/05/04 03:10:14;;;;;;;;;;;19.70;99.90;;;;;;5114735;28;19911;-36
2022/05/04 03:12:40;;;;;;;;;;;19.70;99.90;;;;;;5115674;28;19908;-36
2022/05/04 03:15:06;;;;;;;;;;;19.70;99.90;;;;;;5115401;28;19911;-36
2022/05/04 03:17:32;;;;;;;;;;;19.70;99.90;;;;;;5115676;28;19951;-36
2022/05/04 03:19:58;;;;;;;;;;;19.70;99.90;;;;;;5115687;28;19957;-36
2022/05/04 03:22:25;;;;;;;;;;;19.70;99.90;;;;;;5115556;28;19915;-36
2022/05/04 03:24:51;;;;;;;;;;;19.70;99.90;;;;;;5115529;28;20350;-36
2022/05/04 03:27:16;;;;;;;;;;;19.70;99.90;;;;;;5115451;28;19933;-36
2022/05/04 03:29:42;;;;;;;;;;;19.70;99.90;;;;;;5115408;28;19911;-36
2022/05/04 03:32:08;;;;;;;;;;;19.70;99.90;;;;;;5096735;28;20034;-35
2022/05/04 03:34:33;;;;;;;;;;;19.70;99.90;;;;;;5115263;28;19953;-36
2022/05/04 03:36:59;;;;;;;;;;;19.70;99.90;;;;;;5115252;28;20370;-36
2022/05/04 03:39:27;;;;;;;;;;;19.70;99.90;;;;;;5115013;28;19939;-35
2022/05/04 03:41:53;;;;;;;;;;;19.70;99.90;;;;;;5114979;28;19949;-36
2022/05/04 03:44:19;;;;;;;;;;;19.70;99.90;;;;;;5115075;28;19915;-36
2022/05/04 03:46:46;;;;;;;;;;;19.70;99.90;;;;;;5115058;28;19912;-36
2022/05/04 03:49:12;;;;;;;;;;;19.70;99.90;;;;;;5114598;28;19919;-36
2022/05/04 03:51:38;;;;;;;;;;;19.70;99.90;;;;;;5114967;28;19918;-36
2022/05/04 03:54:04;;;;;;;;;;;19.70;99.90;;;;;;5114774;28;19908;-36
2022/05/04 03:56:30;;;;;;;;;;;19.70;99.90;;;;;;5114608;28;20351;-36
2022/05/04 03:58:55;;;;;;;;;;;19.70;99.90;;;;;;5114986;28;20003;-36
2022/05/04 04:01:22;;;;;;;;;;;19.70;99.90;;;;;;5115261;28;19915;-36
2022/05/04 04:03:47;;;;;;;;;;;19.70;99.90;;;;;;5114495;28;20277;-36
2022/05/04 04:06:13;;;;;;;;;;;19.70;99.90;;;;;;5114886;28;19912;-36
2022/05/04 04:08:39;;;;;;;;;;;19.70;99.90;;;;;;5114400;28;20008;-36
2022/05/04 04:11:05;;;;;;;;;;;19.70;99.90;;;;;;5114434;28;19908;-36
2022/05/04 04:13:31;;;;;;;;;;;19.70;99.90;;;;;;5114914;28;19908;-36
2022/05/04 04:15:57;;;;;;;;;;;19.70;99.90;;;;;;5096378;28;19908;-35
2022/05/04 04:18:23;;;;;;;;;;;19.60;99.90;;;;;;5096210;28;20399;-36
2022/05/04 04:23:33;;;;;;;;;;;19.70;99.90;;;;;;5114189;28;19954;-36
2022/05/04 04:25:58;;;;;;;;;;;19.60;99.90;;;;;;5114092;28;19959;-36
2022/05/04 04:28:24;;;;;;;;;;;19.60;99.90;;;;;;5114260;28;19912;-36
2022/05/04 04:30:50;;;;;;;;;;;19.60;99.90;;;;;;5114425;28;19931;-36
2022/05/04 04:33:15;;;;;;;;;;;19.60;99.90;;;;;;5114199;28;19932;-36
2022/05/04 04:35:41;;;;;;;;;;;19.60;99.90;;;;;;5113995;28;19912;-36
2022/05/04 04:38:07;;;;;;;;;;;19.60;99.90;;;;;;5096070;28;19961;-35
2022/05/04 04:40:33;;;;;;;;;;;19.60;99.90;;;;;;5113900;28;20362;-36
2022/05/04 04:43:00;;;;;;;;;;;19.60;99.90;;;;;;5114219;28;19970;-36
2022/05/04 04:45:26;;;;;;;;;;;19.60;99.90;;;;;;5114169;28;19911;-36
2022/05/04 04:47:52;;;;;;;;;;;19.70;99.90;;;;;;5113893;28;20377;-36
2022/05/04 04:50:18;;;;;;;;;;;19.60;99.90;;;;;;5114281;28;19916;-36
2022/05/04 04:52:43;;;;;;;;;;;19.70;99.90;;;;;;5114462;28;19908;-36
2022/05/04 04:55:09;;;;;;;;;;;19.60;99.90;;;;;;5114219;28;19915;-36
2022/05/04 04:57:34;;;;;;;;;;;19.70;99.90;;;;;;5095892;28;19998;-36
2022/05/04 05:00:00;;;;;;;;;;;19.60;99.90;;;;;;5113764;28;19908;-36
2022/05/04 05:02:26;;;;;;;;;;;19.60;99.90;;;;;;5113698;28;19953;-36
2022/05/04 05:04:51;;;;;;;;;;;19.60;99.90;;;;;;5114267;28;19961;-36
2022/05/04 05:07:17;;;;;;;;;;;19.70;99.90;;;;;;5113432;28;19922;-36
2022/05/04 05:09:43;;;;;;;;;;;19.60;99.90;;;;;;5113714;28;19918;-36
2022/05/04 05:12:08;;;;;;;;;;;19.60;99.90;;;;;;5113857;28;19912;-36
2022/05/04 05:17:18;;;;;;;;;;;19.60;99.90;;;;;;5113610;28;19919;-36
2022/05/04 05:19:44;;;;;;;;;;;19.60;99.90;;;;;;5113987;28;19908;-36
2022/05/04 05:22:09;;;;;;;;;;;19.60;99.90;;;;;;5113787;28;19907;-36
2022/05/04 05:24:35;;;;;;;;;;;19.60;99.90;;;;;;5113463;28;20133;-36
2022/05/04 05:27:01;;;;;;;;;;;19.70;99.90;;;;;;5113570;28;19916;-36
2022/05/04 05:29:26;;;;;;;;;;;19.70;99.90;;;;;;5113374;28;19957;-36
2022/05/04 05:31:52;;;;;;;;;;;19.60;99.90;;;;;;5113624;28;19919;-36
2022/05/04 05:34:17;;;;;;;;;;;19.60;99.90;;;;;;5117087;28;20251;-36
2022/05/04 05:36:43;;;;;;;;;;;19.60;99.90;;;;;;5117411;28;19908;-36
2022/05/04 05:39:09;;;;;;;;;;;19.60;99.90;;;;;;5117057;28;19911;-36
2022/05/04 05:41:34;;;;;;;;;;;19.60;99.90;;;;;;5116787;28;19915;-36
2022/05/04 05:44:00;;;;;;;;;;;19.60;99.90;;;;;;5098843;28;19948;-36
2022/05/04 05:46:26;;;;;;;;;;;19.60;99.90;;;;;;5098591;28;19981;-36
2022/05/04 05:48:51;;;;;;;;;;;19.60;99.90;;;;;;5116550;28;20310;-36
2022/05/04 05:51:17;;;;;;;;;;;19.60;99.90;;;;;;5116565;28;19980;-37
2022/05/04 05:53:42;;;;;;;;;;;19.60;99.90;;;;;;5116418;28;19908;-36
2022/05/04 05:56:08;;;;;;;;;;;19.60;99.90;;;;;;5116361;28;19919;-36
2022/05/04 05:58:33;;;;;;;;;;;19.60;99.90;;;;;;5132794;27;19915;-36
2022/05/04 06:00:59;;;;;;;;;;;19.60;99.90;;;;;;5116543;28;20306;-36
2022/05/04 06:03:24;;;;;;;;;;;19.60;99.90;;;;;;5116526;28;19931;-36
2022/05/04 06:05:50;;;;;;;;;;;19.60;99.90;;;;;;5115950;28;20270;-36
2022/05/04 06:08:16;;;;;;;;;;;19.60;99.90;;;;;;5116342;28;20286;-36
2022/05/04 06:10:41;;;;;;;;;;;19.60;99.90;;;;;;5116363;28;20347;-36
2022/05/04 06:13:07;;;;;;;;;;;19.50;99.90;;;;;;5116304;28;20468;-36
2022/05/04 06:15:33;;;;;;;;;;;19.50;99.90;;;;;;5116226;28;19998;-36
2022/05/04 06:17:58;;;;;;;;;;;19.30;99.90;;;;;;5116107;28;19911;-36
2022/05/04 06:20:24;;;;;;;;;;;19.10;99.90;;;;;;5116057;28;19908;-36
2022/05/04 06:22:50;;;;;;;;;;;19.10;99.90;;;;;;5115959;28;19953;-36
2022/05/04 06:25:15;;;;;;;;;;;18.80;99.90;;;;;;5116338;28;19907;-35
2022/05/04 06:27:41;;;;;;;;;;;18.90;99.90;;;;;;5116013;28;19912;-35
2022/05/04 06:35:35;;;;;;;;;;;19.10;99.90;;;;;;5115720;28;20025;-35
2022/05/04 06:38:00;;;;;;;;;;;19.30;99.90;;;;;;5115600;28;19974;-35
2022/05/04 06:40:26;;;;;;;;;;;19.40;99.90;;;;;;5115757;28;19961;-36
2022/05/04 06:42:51;;;;;;;;;;;19.50;99.90;;;;;;5097457;28;19953;-35
2022/05/04 06:45:17;;;;;;;;;;;19.50;99.90;;;;;;5115683;28;19912;-35
2022/05/04 06:47:43;;;;;;;;;;;19.60;99.90;;;;;;5097492;28;19912;-35
2022/05/04 06:50:10;;;;;;;;;;;19.70;99.90;;;;;;5115616;28;20362;-35
2022/05/04 06:52:37;;;;;;;;;;;19.70;99.90;;;;;;5097370;28;19907;-35
2022/05/04 06:55:03;;;;;;;;;;;19.70;99.90;;;;;;5115285;28;20256;-36
2022/05/04 06:57:29;;;;;;;;;;;19.70;99.90;;;;;;5097529;28;20307;-36
2022/05/04 06:59:54;;;;;;;;;;;19.80;99.90;;;;;;5115074;28;19915;-37
2022/05/04 07:02:20;;;;;;;;;;;19.80;99.90;;;;;;5115804;28;19908;-36
2022/05/04 07:04:45;;;;;;;;;;;19.70;99.90;;;;;;5115302;28;19919;-36
2022/05/04 07:07:11;;;;;;;;;;;19.80;99.90;;;;;;5115746;28;20322;-36
2022/05/04 07:09:36;;;;;;;;;;;19.80;99.90;;;;;;5115399;28;19918;-36
2022/05/04 07:12:02;;;;;;;;;;;19.70;99.90;;;;;;5115518;28;19908;-36
2022/05/04 07:14:28;;;;;;;;;;;19.70;99.90;;;;;;5114965;28;19908;-36
2022/05/04 07:16:53;;;;;;;;;;;19.70;99.90;;;;;;5115421;28;20396;-36
2022/05/04 07:19:19;;;;;;;;;;;19.80;99.90;;;;;;5115542;28;20376;-36
2022/05/04 07:21:45;;;;;;;;;;;19.80;99.90;;;;;;5115791;28;19908;-36
2022/05/04 07:24:11;;;;;;;;;;;19.80;99.90;;;;;;5115306;28;19951;-36
2022/05/04 07:26:37;;;;;;;;;;;19.70;99.90;;;;;;5115194;28;19954;-36
2022/05/04 07:29:03;;;;;;;;;;;19.50;99.90;;;;;;5114947;28;19912;-36
2022/05/04 07:31:28;;;;;;;;;;;19.60;99.90;;;;;;5114940;28;19919;-37
2022/05/04 07:33:54;;;;;;;;;;;19.40;99.90;;;;;;5115139;28;19961;-36
2022/05/04 07:36:19;;;;;;;;;;;19.50;99.90;;;;;;5114366;28;19919;-37
2022/05/04 07:38:45;;;;;;;;;;;19.50;99.90;;;;;;5114659;28;19915;-36
2022/05/04 07:43:54;;;;;;;;;;;19.40;99.90;;;;;;5114678;28;19914;-36
2022/05/04 07:46:20;;;;;;;;;;;19.40;99.90;;;;;;5114505;28;19911;-36
2022/05/04 07:48:45;;;;;;;;;;;19.40;99.90;;;;;;5114346;28;19911;-36
2022/05/04 07:51:11;;;;;;;;;;;19.50;99.90;;;;;;5114382;28;19946;-36
2022/05/04 07:53:37;;;;;;;;;;;19.70;99.90;;;;;;5114778;28;19908;-36
2022/05/04 07:56:03;;;;;;;;;;;19.70;99.90;;;;;;5113715;28;20306;-36
2022/05/04 07:58:28;;;;;;;;;;;19.80;99.90;;;;;;5096584;28;19912;-36
2022/05/04 08:06:22;;;;;;;;;;;19.80;99.90;;;;;;5114302;28;19964;-36
2022/05/04 08:08:48;;;;;;;;;;;19.80;99.90;;;;;;5114301;28;19919;-36
2022/05/04 08:11:13;;;;;;;;;;;19.70;99.90;;;;;;5096134;28;19957;-36
2022/05/04 08:13:39;;;;;;;;;;;19.80;99.90;;;;;;5096182;28;19907;-36
2022/05/04 08:16:06;;;;;;;;;;;19.80;99.90;;;;;;5114217;28;20230;-35
2022/05/04 08:18:31;;;;;;;;;;;19.80;99.90;;;;;;5114485;28;20412;-36
2022/05/04 08:20:57;;;;;;;;;;;19.80;99.90;;;;;;5114176;28;19912;-35
2022/05/04 08:23:23;;;;;;;;;;;19.80;99.90;;;;;;5114341;28;19915;-35
2022/05/04 08:25:50;;;;;;;;;;;19.80;99.90;;;;;;5114090;28;19916;-36
2022/05/04 08:28:15;;;;;;;;;;;19.80;99.90;;;;;;5114109;28;19954;-36
2022/05/04 08:30:41;;;;;;;;;;;19.80;99.90;;;;;;5114824;28;19908;-36
2022/05/04 08:33:06;;;;;;;;;;;19.90;99.90;;;;;;5114196;28;20040;-35
2022/05/04 08:35:35;;;;;;;;;;;19.90;99.90;;;;;;5095862;28;19908;-36
2022/05/04 08:38:00;;;;;;;;;;;19.80;99.90;;;;;;5114096;28;19911;-36
2022/05/04 08:40:26;;;;;;;;;;;19.80;99.90;;;;;;5113850;28;20287;-36
2022/05/04 08:42:52;;;;;;;;;;;19.80;99.90;;;;;;5114132;28;19914;-36
2022/05/04 08:45:17;;;;;;;;;;;19.80;99.90;;;;;;5113850;28;20358;-35
2022/05/04 08:47:45;;;;;;;;;;;19.80;99.90;;;;;;5113818;28;19912;-35
2022/05/04 08:50:14;;;;;;;;;;;19.90;99.90;;;;;;5113470;28;19912;-36
2022/05/04 08:52:42;;;;;;;;;;;19.80;99.90;;;;;;5113559;28;19955;-36
2022/05/04 08:55:08;;;;;;;;;;;19.90;99.90;;;;;;5113386;28;19914;-36
2022/05/04 08:57:34;;;;;;;;;;;19.90;99.90;;;;;;5113716;28;19958;-36
2022/05/04 08:59:59;;;;;;;;;;;19.90;99.90;;;;;;5113990;28;19911;-36
2022/05/04 09:02:25;;;;;;;;;;;19.90;99.90;;;;;;5113666;28;19908;-37
2022/05/04 09:04:51;;;;;;;;;;;19.90;99.90;;;;;;5113706;28;19914;-37
2022/05/04 09:07:20;;;;;;;;;;;19.90;99.90;;;;;;5114325;28;19919;-36
2022/05/04 09:09:46;;;;;;;;;;;19.90;99.90;;;;;;5118064;28;19957;-36
2022/05/04 09:12:14;;;;;;;;;;;19.90;99.90;;;;;;5117988;28;20300;-36
2022/05/04 09:14:40;;;;;;;;;;;20.00;99.90;;;;;;5117593;28;20068;-36
2022/05/04 09:17:08;;;;;;;;;;;20.00;99.90;;;;;;5117291;28;19922;-36
2022/05/04 09:19:34;;;;;;;;;;;19.80;99.90;;;;;;5117725;28;19960;-36
2022/05/04 09:21:59;;;;;;;;;;;19.80;99.90;;;;;;5117394;28;20341;-36
2022/05/04 09:24:26;;;;;;;;;;;19.90;99.90;;;;;;5117492;28;19907;-36
2022/05/04 09:26:53;;;;;;;;;;;19.90;99.90;;;;;;5117453;28;19959;-36
2022/05/04 09:29:20;;;;;;;;;;;19.90;99.90;;;;;;5117567;28;19912;-35
2022/05/04 09:31:46;;;;;;;;;;;19.90;99.90;;;;;;5117089;28;19908;-36
2022/05/04 09:34:12;;;;;;;;;;;19.90;99.90;;;;;;5117664;28;19954;-35
2022/05/04 09:36:37;;;;;;;;;;;19.90;99.90;;;;;;5117103;28;20379;-36
2022/05/04 09:44:55;;;;;;;;;;;19.90;99.90;;;;;;5117345;28;20000;-36
2022/05/04 09:47:21;;;;;;;;;;;19.90;99.90;;;;;;5117112;28;20300;-35
2022/05/04 09:49:48;;;;;;;;;;;19.90;99.90;;;;;;5117046;28;20294;-36
2022/05/04 09:52:15;;;;;;;;;;;19.90;99.90;;;;;;5116662;28;20411;-36
2022/05/04 09:54:40;;;;;;;;;;;19.90;99.90;;;;;;5117062;28;19961;-36
2022/05/04 09:57:06;;;;;;;;;;;19.90;99.90;;;;;;5116881;28;19945;-36
2022/05/04 09:59:32;;;;;;;;;;;19.90;99.90;;;;;;5117028;28;19950;-36
2022/05/04 10:01:59;;;;;;;;;;;19.90;99.90;;;;;;5116551;28;19918;-36
2022/05/04 10:04:26;;;;;;;;;;;19.90;99.90;;;;;;5117220;28;19961;-36
2022/05/04 10:06:52;;;;;;;;;;;19.90;99.90;;;;;;5116163;28;19912;-36
2022/05/04 10:09:19;;;;;;;;;;;19.90;99.90;;;;;;5116422;28;19969;-36
2022/05/04 10:11:46;;;;;;;;;;;19.90;99.90;;;;;;5117012;28;19908;-36
2022/05/04 10:14:15;;;;;;;;;;;19.90;99.90;;;;;;5116636;28;19908;-36
2022/05/04 10:16:46;;;;;;;;;;;19.90;99.90;;;;;;5116512;28;19908;-36
2022/05/04 10:19:17;;;;;;;;;;;19.90;99.90;;;;;;5116183;28;19908;-36
2022/05/04 10:21:43;;;;;;;;;;;19.90;99.90;;;;;;5116635;28;19908;-36
2022/05/04 10:24:09;;;;;;;;;;;19.90;99.90;;;;;;5116083;28;19912;-36
2022/05/04 10:26:35;;;;;;;;;;;19.90;99.90;;;;;;5116434;28;19911;-36
2022/05/04 10:32:03;;;;;;;;;;;19.90;99.90;;;;;;5116126;28;20049;-36
2022/05/04 10:34:29;;;;;;;;;;;19.80;99.90;;;;;;5115893;28;19943;-36
2022/05/04 10:36:54;;;;;;;;;;;19.90;99.90;;;;;;5115990;28;19915;-36
2022/05/04 10:39:21;;;;;;;;;;;19.90;99.90;;;;;;5116329;28;19908;-36
2022/05/04 10:41:47;;;;;;;;;;;19.80;99.90;;;;;;5116076;28;19907;-36
2022/05/04 10:44:13;;;;;;;;;;;19.80;99.90;;;;;;5116018;28;19934;-36
2022/05/04 10:46:40;;;;;;;;;;;19.80;99.90;;;;;;5115868;28;19916;-37
2022/05/04 10:49:08;;;;;;;;;;;19.80;99.90;;;;;;5115453;28;20304;-36
2022/05/04 10:51:37;;;;;;;;;;;19.80;99.90;;;;;;5115995;28;19914;-36
2022/05/04 10:54:10;;;;;;;;;;;19.80;99.90;;;;;;5116173;28;19921;-36
2022/05/04 10:56:46;;;;;;;;;;;19.80;99.90;;;;;;5115866;28;19943;-36
2022/05/04 10:59:13;;;;;;;;;;;19.80;99.90;;;;;;5115751;28;19908;-36
2022/05/04 11:01:39;;;;;;;;;;;19.80;99.90;;;;;;5115937;28;20331;-36
2022/05/04 11:04:07;;;;;;;;;;;19.80;99.90;;;;;;5115811;28;20251;-36
2022/05/04 11:06:40;;;;;;;;;;;19.80;99.90;;;;;;5115476;28;19912;-36
2022/05/04 11:09:12;;;;;;;;;;;19.70;99.90;;;;;;5115028;28;19952;-36
2022/05/04 11:11:39;;;;;;;;;;;19.80;99.90;;;;;;5115209;28;20385;-36
2022/05/04 11:14:05;;;;;;;;;;;19.70;99.90;;;;;;5115211;28;19915;-36
2022/05/04 11:16:30;;;;;;;;;;;19.70;99.90;;;;;;5115337;28;19907;-36
2022/05/04 11:18:58;;;;;;;;;;;19.70;99.90;;;;;;5115520;28;19999;-36
2022/05/04 11:21:25;;;;;;;;;;;19.70;99.90;;;;;;5115276;28;19991;-36
2022/05/04 11:23:52;;;;;;;;;;;19.70;99.90;;;;;;5097358;28;19908;-36
2022/05/04 11:26:21;;;;;;;;;;;19.70;99.90;;;;;;5114406;28;19911;-36
2022/05/04 11:28:48;;;;;;;;;;;19.60;99.90;;;;;;5114692;28;19988;-36
2022/05/04 11:31:13;;;;;;;;;;;19.70;99.90;;;;;;5113876;28;20388;-36
2022/05/04 11:33:43;;;;;;;;;;;19.60;99.90;;;;;;5115137;28;19919;-36
2022/05/04 11:36:09;;;;;;;;;;;19.70;99.90;;;;;;5114719;28;19912;-36
2022/05/04 11:38:34;;;;;;;;;;;19.70;99.90;;;;;;5115018;28;19908;-36
2022/05/04 11:41:00;;;;;;;;;;;19.70;99.90;;;;;;5114849;28;19907;-36
2022/05/04 11:43:29;;;;;;;;;;;19.70;99.90;;;;;;5114642;28;20296;-36
2022/05/04 11:45:55;;;;;;;;;;;19.70;99.90;;;;;;5114323;28;19994;-37
2022/05/04 11:48:21;;;;;;;;;;;19.70;99.90;;;;;;5096143;28;20425;-36
2022/05/04 11:50:47;;;;;;;;;;;19.70;99.90;;;;;;5114518;28;20355;-36
2022/05/04 11:53:13;;;;;;;;;;;19.70;99.90;;;;;;5114887;28;19908;-36
2022/05/04 11:55:38;;;;;;;;;;;19.70;99.90;;;;;;5115095;28;19926;-36
2022/05/04 11:58:11;;;;;;;;;;;19.70;99.90;;;;;;5114388;28;19908;-36
2022/05/04 12:00:37;;;;;;;;;;;19.70;99.90;;;;;;5114367;28;19991;-36
2022/05/04 12:03:03;;;;;;;;;;;19.70;99.90;;;;;;5114495;28;19914;-36
2022/05/04 12:05:29;;;;;;;;;;;19.70;99.90;;;;;;5114239;28;19918;-36
2022/05/04 12:07:54;;;;;;;;;;;19.70;99.90;;;;;;5113933;28;20354;-36
2022/05/04 12:10:20;;;;;;;;;;;19.70;99.90;;;;;;5096625;28;19916;-36
2022/05/04 12:12:46;;;;;;;;;;;19.70;99.90;;;;;;5114348;28;20407;-36
2022/05/04 12:15:12;;;;;;;;;;;19.70;99.90;;;;;;5114468;28;19919;-36
2022/05/04 12:17:37;;;;;;;;;;;19.70;99.90;;;;;;5114461;28;19961;-36
2022/05/04 12:20:03;;;;;;;;;;;19.70;99.90;;;;;;5114323;28;19907;-37
2022/05/04 12:22:29;;;;;;;;;;;19.70;99.90;;;;;;5113927;28;20294;-36
2022/05/04 12:24:55;;;;;;;;;;;19.70;99.90;;;;;;5114501;28;19915;-36
2022/05/04 12:27:20;;;;;;;;;;;19.70;99.90;;;;;;5113780;28;19912;-36
2022/05/04 12:35:31;;;;;;;;;;;19.70;99.90;;;;;;5106044;28;19914;-37
2022/05/04 12:37:58;;;;;;;;;;;19.70;99.90;;;;;;5114288;28;19998;-37
2022/05/04 12:40:25;;;;;;;;;;;19.70;99.90;;;;;;5114303;28;19915;-36
2022/05/04 12:42:50;;;;;;;;;;;19.70;99.90;;;;;;5117276;28;19915;-36
2022/05/04 12:45:19;;;;;;;;;;;19.70;99.90;;;;;;5117895;28;19908;-36
2022/05/04 12:47:44;;;;;;;;;;;19.70;99.90;;;;;;5117631;28;19915;-36
2022/05/04 12:50:10;;;;;;;;;;;19.70;99.90;;;;;;5117924;28;20311;-35
2022/05/04 12:52:36;;;;;;;;;;;19.70;99.90;;;;;;5118194;28;19908;-36
2022/05/04 12:55:02;;;;;;;;;;;19.70;99.90;;;;;;5118225;28;20243;-36
2022/05/04 12:57:27;;;;;;;;;;;19.70;99.90;;;;;;5117866;28;19915;-36
2022/05/04 12:59:53;;;;;;;;;;;19.80;99.90;;;;;;5118153;28;19908;-36
2022/05/04 13:02:18;;;;;;;;;;;19.70;99.90;;;;;;5117712;28;19911;-36
2022/05/04 13:04:43;;;;;;;;;;;19.70;99.90;;;;;;5117402;28;19908;-36
2022/05/04 13:07:10;;;;;;;;;;;19.80;99.90;;;;;;5099085;28;20399;-36
2022/05/04 13:09:36;;;;;;;;;;;19.80;99.90;;;;;;5117749;28;19912;-36
2022/05/04 13:12:02;;;;;;;;;;;19.80;99.90;;;;;;5117609;28;19908;-36
2022/05/04 13:14:28;;;;;;;;;;;19.80;99.90;;;;;;5117296;28;19961;-36
2022/05/04 13:16:54;;;;;;;;;;;19.70;99.90;;;;;;5117587;28;19915;-36
2022/05/04 13:19:19;;;;;;;;;;;19.60;99.90;;;;;;5117576;28;20007;-36
2022/05/04 13:21:45;;;;;;;;;;;19.80;99.90;;;;;;5117406;28;19930;-36
2022/05/04 13:24:10;;;;;;;;;;;19.70;99.90;;;;;;5117458;28;20013;-36
2022/05/04 13:26:36;;;;;;;;;;;19.70;99.90;;;;;;5099176;28;20234;-36
2022/05/04 13:29:02;;;;;;;;;;;19.70;99.90;;;;;;5117478;28;19912;-36
2022/05/04 13:31:28;;;;;;;;;;;19.70;99.90;;;;;;5116892;28;19908;-37
2022/05/04 13:33:54;;;;;;;;;;;19.80;99.90;;;;;;5116853;28;20366;-35
2022/05/04 13:36:20;;;;;;;;;;;19.80;99.90;;;;;;5117371;28;20049;-35
2022/05/04 13:38:46;;;;;;;;;;;19.80;99.90;;;;;;5117269;28;19949;-36
2022/05/04 13:41:12;;;;;;;;;;;19.80;99.90;;;;;;5117000;28;19908;-35
2022/05/04 13:43:37;;;;;;;;;;;19.80;99.90;;;;;;5116782;28;19915;-36
2022/05/04 13:46:03;;;;;;;;;;;19.80;99.90;;;;;;5116663;28;20312;-35
2022/05/04 13:48:28;;;;;;;;;;;19.80;99.90;;;;;;5116687;28;19926;-36
2022/05/04 13:53:38;;;;;;;;;;;19.80;99.90;;;;;;5115958;28;20345;-36
2022/05/04 13:56:04;;;;;;;;;;;19.80;99.90;;;;;;5116850;28;19943;-36
2022/05/04 13:58:29;;;;;;;;;;;19.80;99.90;;;;;;5116837;28;19908;-36
2022/05/04 14:00:55;;;;;;;;;;;19.70;99.90;;;;;;5117001;28;19908;-36
2022/05/04 14:03:21;;;;;;;;;;;19.80;99.90;;;;;;5116535;28;19915;-36
2022/05/04 14:05:47;;;;;;;;;;;19.80;99.90;;;;;;5116633;28;19908;-37
2022/05/04 14:08:12;;;;;;;;;;;19.80;99.90;;;;;;5116522;28;20369;-36
2022/05/04 14:10:43;;;;;;;;;;;19.80;99.90;;;;;;5116695;28;19915;-36
2022/05/04 14:13:09;;;;;;;;;;;19.80;99.90;;;;;;5116108;28;20382;-36
2022/05/04 14:15:35;;;;;;;;;;;19.80;99.90;;;;;;5116407;28;20269;-36
2022/05/04 14:18:03;;;;;;;;;;;19.80;99.90;;;;;;5116293;28;19915;-36
2022/05/04 14:20:28;;;;;;;;;;;19.80;99.90;;;;;;5116046;28;19919;-36
2022/05/04 14:22:54;;;;;;;;;;;19.80;99.90;;;;;;5116283;28;19916;-37
2022/05/04 14:25:20;;;;;;;;;;;19.90;99.90;;;;;;5116430;28;20307;-36
2022/05/04 14:27:45;;;;;;;;;;;19.90;99.90;;;;;;5115732;28;20323;-37
2022/05/04 14:30:11;;;;;;;;;;;19.90;99.90;;;;;;5116165;28;19915;-37
2022/05/04 14:32:37;;;;;;;;;;;19.90;99.90;;;;;;5116094;28;20349;-37
2022/05/04 14:35:03;;;;;;;;;;;19.90;99.90;;;;;;5116208;28;19907;-37
2022/05/04 14:37:30;;;;;;;;;;;19.90;99.90;;;;;;5116128;28;19911;-37
2022/05/04 14:39:56;;;;;;;;;;;19.90;99.90;;;;;;5116301;28;19907;-37
2022/05/04 14:42:22;;;;;;;;;;;19.90;99.90;;;;;;5116396;28;19947;-36
2022/05/04 14:44:47;;;;;;;;;;;19.90;99.90;;;;;;5097728;28;20334;-36
2022/05/04 14:47:13;;;;;;;;;;;19.90;99.90;;;;;;5115949;28;20007;-36
2022/05/04 14:49:40;;;;;;;;;;;19.90;99.90;;;;;;5115341;28;19931;-36